Time;durP1;ratioP1;P1;durP2;ratioP2;P2;SDS_P1;SDS_P2;PMS_P1;PMS_P2;Temp;Humidity;BMP_temperature;BMP_pressure;BME280_temperature;BME280_humidity;BME280_pressure;Samples;Min_cycle;Max_cycle;Signal;HPM_P1;HPM_P2
2023/05/09 00:02:14;;;;;;;7.57;7.38;;;;;;;;;;4205018;28;20074;-56
2023/05/09 00:04:34;;;;;;;7.55;7.25;;;;;;;;;;4205156;28;20067;-56
2023/05/09 00:06:54;;;;;;;7.80;7.57;;;;;;;;;;4204175;28;20056;-57
2023/05/09 00:09:15;;;;;;;7.97;7.68;;;;;;;;;;4203025;28;20101;-56
2023/05/09 00:11:35;;;;;;;8.20;7.85;;;;;;;;;;4204471;28;20051;-57
2023/05/09 00:13:56;;;;;;;7.90;7.65;;;;;;;;;;4210844;28;20142;-57
2023/05/09 00:16:17;;;;;;;7.18;6.97;;;;;;;;;;4203994;28;20082;-57
2023/05/09 00:18:41;;;;;;;7.90;7.50;;;;;;;;;;4205115;28;20270;-56
2023/05/09 00:21:02;;;;;;;7.43;7.18;;;;;;;;;;4204495;28;20051;-57
2023/05/09 00:23:23;;;;;;;7.50;7.10;;;;;;;;;;4203553;28;20048;-56
2023/05/09 00:25:43;;;;;;;7.85;7.43;;;;;;;;;;4190237;28;20113;-56
2023/05/09 00:28:04;;;;;;;7.35;7.05;;;;;;;;;;4191521;28;20083;-57
2023/05/09 00:30:24;;;;;;;8.43;8.18;;;;;;;;;;4204143;28;20047;-56
2023/05/09 00:32:45;;;;;;;7.20;7.00;;;;;;;;;;4205040;28;20051;-57
2023/05/09 00:35:05;;;;;;;8.07;7.78;;;;;;;;;;4204125;28;20332;-57
2023/05/09 00:37:26;;;;;;;8.57;8.05;;;;;;;;;;4205122;28;20090;-57
2023/05/09 00:39:49;;;;;;;8.65;8.43;;;;;;;;;;4205150;28;20052;-56
2023/05/09 00:42:09;;;;;;;8.70;8.00;;;;;;;;;;4192777;28;20047;-57
2023/05/09 00:44:29;;;;;;;7.70;7.53;;;;;;;;;;4207710;28;20043;-57
2023/05/09 00:46:50;;;;;;;7.75;7.65;;;;;;;;;;4207600;28;20054;-57
2023/05/09 00:49:11;;;;;;;7.72;7.40;;;;;;;;;;4207602;28;20047;-57
2023/05/09 00:51:31;;;;;;;8.27;8.07;;;;;;;;;;4207365;28;20104;-57
2023/05/09 00:53:52;;;;;;;7.60;7.40;;;;;;;;;;4207772;28;20082;-58
2023/05/09 00:56:12;;;;;;;7.93;7.57;;;;;;;;;;4206876;28;20048;-56
2023/05/09 00:58:32;;;;;;;7.85;7.60;;;;;;;;;;4206776;28;20059;-57
2023/05/09 01:00:52;;;;;;;9.02;8.63;;;;;;;;;;4207145;28;20062;-57
2023/05/09 01:03:13;;;;;;;9.20;8.90;;;;;;;;;;4207561;28;20062;-57
2023/05/09 01:05:38;;;;;;;7.82;7.63;;;;;;;;;;4206457;28;20131;-56
2023/05/09 01:08:07;;;;;;;7.30;7.18;;;;;;;;;;4206629;28;20094;-56
2023/05/09 01:10:39;;;;;;;8.85;8.50;;;;;;;;;;4206931;28;20382;-58
2023/05/09 01:13:03;;;;;;;8.45;8.13;;;;;;;;;;4206334;28;20060;-57
2023/05/09 01:15:28;;;;;;;9.32;8.82;;;;;;;;;;4207474;28;20109;-57
2023/05/09 01:17:59;;;;;;;7.97;7.78;;;;;;;;;;4206192;28;20086;-56
2023/05/09 01:20:26;;;;;;;7.50;7.20;;;;;;;;;;4207368;28;20083;-57
2023/05/09 01:22:48;;;;;;;8.35;8.15;;;;;;;;;;4205011;28;20082;-56
2023/05/09 01:25:14;;;;;;;8.10;7.70;;;;;;;;;;4206906;28;20409;-57
2023/05/09 01:27:57;;;;;;;8.77;8.57;;;;;;;;;;4206495;28;20058;-57
2023/05/09 01:30:18;;;;;;;7.93;7.55;;;;;;;;;;4205724;28;20089;-57
2023/05/09 01:32:39;;;;;;;8.43;8.13;;;;;;;;;;4207360;28;20055;-56
2023/05/09 01:35:01;;;;;;;8.45;8.25;;;;;;;;;;4206270;28;20194;-57
2023/05/09 01:37:24;;;;;;;7.73;7.43;;;;;;;;;;4207229;28;20047;-56
2023/05/09 01:39:46;;;;;;;8.75;8.13;;;;;;;;;;4205671;28;20285;-57
2023/05/09 01:42:07;;;;;;;9.17;8.87;;;;;;;;;;4192251;28;20067;-57
2023/05/09 01:44:31;;;;;;;7.95;7.68;;;;;;;;;;4206501;28;20294;-57
2023/05/09 01:46:53;;;;;;;7.90;7.70;;;;;;;;;;4206063;28;20044;-56
2023/05/09 01:49:14;;;;;;;7.50;7.40;;;;;;;;;;4206216;28;20052;-57
2023/05/09 01:51:36;;;;;;;7.90;7.70;;;;;;;;;;4205860;28;20125;-57
2023/05/09 01:53:57;;;;;;;7.43;7.23;;;;;;;;;;4207009;28;20044;-56
2023/05/09 01:56:18;;;;;;;7.43;7.18;;;;;;;;;;4206162;28;20047;-57
2023/05/09 01:58:38;;;;;;;7.13;6.95;;;;;;;;;;4206669;28;20085;-56
2023/05/09 02:01:00;;;;;;;7.32;7.03;;;;;;;;;;4205294;28;20055;-57
2023/05/09 02:03:20;;;;;;;7.50;7.28;;;;;;;;;;4206993;28;20051;-56
2023/05/09 02:05:42;;;;;;;7.50;7.40;;;;;;;;;;4206821;28;20063;-57
2023/05/09 02:08:02;;;;;;;8.27;7.90;;;;;;;;;;4205849;28;20044;-57
2023/05/09 02:10:24;;;;;;;7.85;7.65;;;;;;;;;;4205088;28;20052;-57
2023/05/09 02:12:44;;;;;;;7.97;7.63;;;;;;;;;;4205109;28;20062;-57
2023/05/09 02:15:05;;;;;;;7.90;7.28;;;;;;;;;;4206709;28;20038;-57
2023/05/09 02:17:28;;;;;;;7.03;6.93;;;;;;;;;;4205314;28;20086;-56
2023/05/09 02:19:48;;;;;;;7.05;6.85;;;;;;;;;;4205271;28;20067;-57
2023/05/09 02:22:09;;;;;;;6.95;6.60;;;;;;;;;;4206668;28;20052;-57
2023/05/09 02:24:31;;;;;;;7.32;7.15;;;;;;;;;;4206501;28;20071;-56
2023/05/09 02:26:52;;;;;;;8.00;7.65;;;;;;;;;;4205441;28;20385;-57
2023/05/09 02:29:12;;;;;;;7.93;7.65;;;;;;;;;;4205332;28;20266;-56
2023/05/09 02:31:33;;;;;;;7.85;7.65;;;;;;;;;;4206388;28;20094;-56
2023/05/09 02:33:54;;;;;;;7.60;7.40;;;;;;;;;;4206363;28;20048;-56
2023/05/09 02:36:15;;;;;;;7.82;7.63;;;;;;;;;;4206330;28;20043;-57
2023/05/09 02:38:36;;;;;;;7.45;7.35;;;;;;;;;;4206137;28;20082;-57
2023/05/09 02:40:56;;;;;;;8.32;8.02;;;;;;;;;;4204821;28;20063;-57
2023/05/09 02:43:16;;;;;;;7.22;7.03;;;;;;;;;;4205753;28;20047;-56
2023/05/09 02:45:36;;;;;;;8.57;7.85;;;;;;;;;;4205774;28;20055;-57
2023/05/09 02:47:56;;;;;;;6.57;6.20;;;;;;;;;;4205239;28;20058;-57
2023/05/09 02:50:16;;;;;;;8.13;7.93;;;;;;;;;;4206111;28;20048;-57
2023/05/09 02:52:37;;;;;;;7.28;6.97;;;;;;;;;;4205965;28;20054;-57
2023/05/09 02:54:57;;;;;;;7.50;7.38;;;;;;;;;;4204686;28;20047;-57
2023/05/09 02:57:18;;;;;;;7.03;6.75;;;;;;;;;;4204687;28;20048;-57
2023/05/09 02:59:38;;;;;;;7.38;7.10;;;;;;;;;;4206299;28;20051;-57
2023/05/09 03:01:58;;;;;;;7.30;7.20;;;;;;;;;;4204681;28;20207;-57
2023/05/09 03:04:18;;;;;;;7.53;7.03;;;;;;;;;;4203926;28;20043;-57
2023/05/09 03:06:38;;;;;;;7.50;7.30;;;;;;;;;;4206070;28;20056;-57
2023/05/09 03:08:59;;;;;;;7.60;7.40;;;;;;;;;;4205280;28;20051;-58
2023/05/09 03:11:20;;;;;;;7.70;7.22;;;;;;;;;;4204066;28;20178;-56
2023/05/09 03:13:40;;;;;;;7.65;7.22;;;;;;;;;;4203967;28;20071;-57
2023/05/09 03:16:00;;;;;;;7.05;6.85;;;;;;;;;;4205921;28;20051;-57
2023/05/09 03:18:20;;;;;;;7.25;7.15;;;;;;;;;;4204417;28;20541;-56
2023/05/09 03:20:40;;;;;;;6.78;6.57;;;;;;;;;;4203758;28;20043;-57
2023/05/09 03:23:01;;;;;;;7.85;7.55;;;;;;;;;;4205855;28;20047;-57
2023/05/09 03:25:21;;;;;;;7.25;6.97;;;;;;;;;;4205847;28;20051;-56
2023/05/09 03:27:41;;;;;;;6.55;6.35;;;;;;;;;;4205866;28;20047;-57
2023/05/09 03:30:02;;;;;;;7.78;7.50;;;;;;;;;;4189760;28;20044;-57
2023/05/09 03:32:22;;;;;;;5.93;5.82;;;;;;;;;;4205606;28;20047;-57
2023/05/09 03:34:42;;;;;;;6.90;6.70;;;;;;;;;;4205338;28;20051;-57
2023/05/09 03:37:02;;;;;;;6.93;6.72;;;;;;;;;;4205109;28;20047;-57
2023/05/09 03:39:22;;;;;;;6.97;6.68;;;;;;;;;;4205548;28;20082;-57
2023/05/09 03:41:43;;;;;;;6.38;6.28;;;;;;;;;;4205042;28;20371;-57
2023/05/09 03:44:04;;;;;;;7.43;7.13;;;;;;;;;;4205009;28;20094;-57
2023/05/09 03:46:24;;;;;;;7.40;7.20;;;;;;;;;;4203340;28;20405;-56
2023/05/09 03:48:45;;;;;;;6.75;6.63;;;;;;;;;;4205194;28;20078;-57
2023/05/09 03:51:05;;;;;;;7.10;6.90;;;;;;;;;;4205083;28;20158;-57
2023/05/09 03:53:25;;;;;;;7.60;7.40;;;;;;;;;;4203841;28;20044;-57
2023/05/09 03:55:45;;;;;;;6.90;6.60;;;;;;;;;;4205391;28;20047;-57
2023/05/09 03:58:06;;;;;;;7.75;7.55;;;;;;;;;;4205365;28;20063;-56
2023/05/09 04:00:26;;;;;;;7.55;7.35;;;;;;;;;;4204256;28;20290;-57
2023/05/09 04:02:46;;;;;;;7.88;7.68;;;;;;;;;;4203020;28;20052;-56
2023/05/09 04:05:07;;;;;;;6.18;5.88;;;;;;;;;;4205149;28;20109;-57
2023/05/09 04:07:28;;;;;;;8.23;7.85;;;;;;;;;;4204999;28;20048;-57
2023/05/09 04:09:49;;;;;;;6.78;6.63;;;;;;;;;;4203920;28;20112;-57
2023/05/09 04:12:09;;;;;;;7.20;6.85;;;;;;;;;;4202763;28;20070;-57
2023/05/09 04:14:29;;;;;;;6.55;6.43;;;;;;;;;;4203716;28;20044;-57
2023/05/09 04:16:49;;;;;;;7.70;7.38;;;;;;;;;;4204486;28;20043;-57
2023/05/09 04:19:10;;;;;;;7.15;6.95;;;;;;;;;;4203425;28;20106;-57
2023/05/09 04:21:30;;;;;;;6.82;6.47;;;;;;;;;;4205062;28;20067;-57
2023/05/09 04:23:51;;;;;;;7.47;7.28;;;;;;;;;;4203881;28;20055;-57
2023/05/09 04:26:12;;;;;;;8.32;8.23;;;;;;;;;;4205027;28;20055;-56
2023/05/09 04:28:32;;;;;;;7.95;7.63;;;;;;;;;;4189313;28;20079;-57
2023/05/09 04:30:52;;;;;;;7.10;6.90;;;;;;;;;;4205414;28;20093;-56
2023/05/09 04:33:13;;;;;;;8.02;7.63;;;;;;;;;;4204935;28;20051;-57
2023/05/09 04:35:33;;;;;;;7.35;7.15;;;;;;;;;;4204694;28;20060;-57
2023/05/09 04:37:53;;;;;;;7.25;6.97;;;;;;;;;;4204957;28;20065;-56
2023/05/09 04:40:13;;;;;;;7.88;7.68;;;;;;;;;;4204142;28;20051;-57
2023/05/09 04:42:33;;;;;;;7.25;7.10;;;;;;;;;;4204863;28;20091;-57
2023/05/09 04:44:54;;;;;;;6.45;6.25;;;;;;;;;;4204830;28;20055;-57
2023/05/09 04:47:15;;;;;;;5.88;5.68;;;;;;;;;;4204782;28;20039;-57
2023/05/09 04:49:35;;;;;;;7.78;7.53;;;;;;;;;;4204791;28;20047;-57
2023/05/09 04:51:55;;;;;;;6.10;5.90;;;;;;;;;;4204754;28;20044;-57
2023/05/09 04:54:16;;;;;;;6.78;6.50;;;;;;;;;;4204855;28;20362;-57
2023/05/09 04:56:36;;;;;;;7.28;6.65;;;;;;;;;;4204761;28;20354;-57
2023/05/09 04:58:56;;;;;;;6.47;6.28;;;;;;;;;;4204563;28;20371;-57
2023/05/09 05:01:16;;;;;;;6.82;6.72;;;;;;;;;;4204261;28;20047;-57
2023/05/09 05:03:36;;;;;;;7.45;7.25;;;;;;;;;;4204654;28;20384;-57
2023/05/09 05:05:56;;;;;;;7.18;7.07;;;;;;;;;;4204145;28;20048;-57
2023/05/09 05:08:17;;;;;;;6.95;6.75;;;;;;;;;;4204084;28;20051;-57
2023/05/09 05:10:37;;;;;;;5.03;4.93;;;;;;;;;;4204567;28;20067;-56
2023/05/09 05:12:57;;;;;;;6.82;6.63;;;;;;;;;;4204626;28;20111;-57
2023/05/09 05:15:18;;;;;;;4.78;4.53;;;;;;;;;;4204719;28;20370;-58
2023/05/09 05:17:38;;;;;;;5.88;5.78;;;;;;;;;;4203830;28;20047;-58
2023/05/09 05:19:58;;;;;;;6.20;6.00;;;;;;;;;;4204597;28;20090;-58
2023/05/09 05:22:19;;;;;;;5.72;5.53;;;;;;;;;;4203662;28;20047;-58
2023/05/09 05:24:39;;;;;;;4.55;4.45;;;;;;;;;;4204115;28;20093;-58
2023/05/09 05:26:59;;;;;;;5.13;5.03;;;;;;;;;;4206614;28;20163;-58
2023/05/09 05:29:19;;;;;;;4.63;4.32;;;;;;;;;;4183323;28;20078;-58
2023/05/09 05:31:39;;;;;;;5.00;4.90;;;;;;;;;;4207149;28;20106;-58
2023/05/09 05:34:00;;;;;;;8.80;8.40;;;;;;;;;;4206670;28;20047;-57
2023/05/09 05:36:20;;;;;;;6.95;6.75;;;;;;;;;;4207009;28;20059;-57
2023/05/09 05:38:40;;;;;;;7.05;6.75;;;;;;;;;;4206434;28;20263;-57
2023/05/09 05:41:00;;;;;;;6.90;6.60;;;;;;;;;;4207136;28;20098;-57
2023/05/09 05:43:20;;;;;;;6.30;6.20;;;;;;;;;;4206202;28;20071;-57
2023/05/09 05:45:40;;;;;;;6.78;6.57;;;;;;;;;;4206148;28;20074;-57
2023/05/09 05:48:01;;;;;;;6.68;6.38;;;;;;;;;;4207083;28;20232;-57
2023/05/09 05:50:21;;;;;;;6.40;6.20;;;;;;;;;;4207113;28;20408;-58
2023/05/09 05:52:41;;;;;;;6.47;6.30;;;;;;;;;;4206749;28;20084;-57
2023/05/09 05:55:02;;;;;;;5.57;5.22;;;;;;;;;;4206427;28;20120;-58
2023/05/09 05:57:22;;;;;;;6.95;6.65;;;;;;;;;;4206992;28;20067;-58
2023/05/09 05:59:42;;;;;;;8.40;7.50;;;;;;;;;;4207026;28;20063;-58
2023/05/09 06:02:02;;;;;;;7.80;7.30;;;;;;;;;;4206531;28;20097;-58
2023/05/09 06:04:22;;;;;;;7.88;6.70;;;;;;;;;;4204976;28;20098;-57
2023/05/09 06:06:43;;;;;;;6.45;5.93;;;;;;;;;;4206774;28;20067;-58
2023/05/09 06:09:03;;;;;;;10.73;5.55;;;;;;;;;;4205600;28;20062;-57
2023/05/09 06:11:23;;;;;;;6.55;6.13;;;;;;;;;;4205301;28;20333;-58
2023/05/09 06:13:43;;;;;;;6.95;6.15;;;;;;;;;;4204367;28;20274;-57
2023/05/09 06:16:04;;;;;;;8.65;5.07;;;;;;;;;;4206475;28;20051;-57
2023/05/09 06:18:39;;;;;;;4.70;4.50;;;;;;;;;;4197579;28;20374;-57
2023/05/09 06:20:59;;;;;;;4.65;4.45;;;;;;;;;;4206678;28;20369;-58
2023/05/09 06:23:21;;;;;;;3.85;3.53;;;;;;;;;;4206120;28;20068;-58
2023/05/09 06:25:41;;;;;;;3.72;3.53;;;;;;;;;;4206569;28;20052;-58
2023/05/09 06:28:01;;;;;;;3.70;3.40;;;;;;;;;;4205970;28;20051;-58
2023/05/09 06:30:21;;;;;;;3.28;3.25;;;;;;;;;;4206662;28;20125;-57
2023/05/09 06:32:47;;;;;;;3.90;3.75;;;;;;;;;;4205684;28;20055;-57
2023/05/09 06:35:07;;;;;;;4.75;3.88;;;;;;;;;;4206530;28;20086;-57
2023/05/09 06:37:27;;;;;;;3.58;3.47;;;;;;;;;;4205848;28;20115;-57
2023/05/09 06:39:49;;;;;;;4.22;4.13;;;;;;;;;;4206421;28;20067;-58
2023/05/09 06:42:09;;;;;;;4.10;4.00;;;;;;;;;;4206449;28;20048;-57
2023/05/09 06:44:29;;;;;;;3.25;3.05;;;;;;;;;;4206152;28;20126;-58
2023/05/09 06:46:50;;;;;;;3.30;3.20;;;;;;;;;;4206352;28;20048;-58
2023/05/09 06:49:12;;;;;;;3.75;3.63;;;;;;;;;;4206066;28;20078;-58
2023/05/09 06:51:32;;;;;;;4.10;3.10;;;;;;;;;;4205942;28;20078;-57
2023/05/09 06:53:53;;;;;;;2.55;2.35;;;;;;;;;;4206321;28;20043;-57
2023/05/09 06:56:13;;;;;;;2.33;2.30;;;;;;;;;;4206236;28;20295;-58
2023/05/09 06:58:33;;;;;;;2.15;2.08;;;;;;;;;;4205954;28;20051;-57
2023/05/09 07:00:53;;;;;;;2.65;2.60;;;;;;;;;;4206233;28;20102;-57
2023/05/09 07:03:14;;;;;;;2.50;2.50;;;;;;;;;;4206269;28;20390;-58
2023/05/09 07:05:34;;;;;;;2.80;2.70;;;;;;;;;;4205973;28;20070;-58
2023/05/09 07:07:55;;;;;;;2.92;2.92;;;;;;;;;;4205842;28;20106;-58
2023/05/09 07:10:16;;;;;;;2.25;2.25;;;;;;;;;;4205959;28;20067;-57
2023/05/09 07:12:36;;;;;;;2.40;2.40;;;;;;;;;;4205790;28;20075;-58
2023/05/09 07:14:56;;;;;;;2.42;2.42;;;;;;;;;;4205933;28;20052;-57
2023/05/09 07:17:16;;;;;;;2.53;2.53;;;;;;;;;;4205444;28;20082;-58
2023/05/09 07:19:44;;;;;;;2.42;2.42;;;;;;;;;;4206027;28;20074;-57
2023/05/09 07:22:04;;;;;;;1.77;1.77;;;;;;;;;;4205904;28;20062;-57
2023/05/09 07:24:24;;;;;;;2.45;2.22;;;;;;;;;;4205698;28;20303;-58
2023/05/09 07:26:44;;;;;;;2.15;2.15;;;;;;;;;;4205562;28;20291;-58
2023/05/09 07:29:04;;;;;;;5.18;2.13;;;;;;;;;;4205396;28;20051;-58
2023/05/09 07:31:25;;;;;;;2.20;1.98;;;;;;;;;;4205387;28;20055;-57
2023/05/09 07:33:45;;;;;;;2.65;2.13;;;;;;;;;;4205327;28;20050;-57
2023/05/09 07:36:05;;;;;;;2.15;2.10;;;;;;;;;;4205600;28;20055;-58
2023/05/09 07:38:26;;;;;;;2.13;2.00;;;;;;;;;;4205600;28;20126;-58
2023/05/09 07:40:46;;;;;;;1.98;1.88;;;;;;;;;;4205506;28;20055;-58
2023/05/09 07:43:07;;;;;;;2.22;1.50;;;;;;;;;;4205531;28;20082;-58
2023/05/09 07:45:27;;;;;;;2.67;2.15;;;;;;;;;;4205247;28;20279;-58
2023/05/09 07:47:47;;;;;;;1.92;1.92;;;;;;;;;;4205535;28;20267;-58
2023/05/09 07:50:07;;;;;;;2.05;1.83;;;;;;;;;;4204279;28;20082;-58
2023/05/09 07:52:28;;;;;;;2.63;2.53;;;;;;;;;;4205106;28;20283;-58
2023/05/09 07:54:48;;;;;;;1.80;1.80;;;;;;;;;;4205540;28;20051;-58
2023/05/09 07:57:08;;;;;;;3.60;1.90;;;;;;;;;;4205322;28;20104;-58
2023/05/09 07:59:28;;;;;;;1.60;1.50;;;;;;;;;;4204760;28;20254;-58
2023/05/09 08:01:49;;;;;;;1.35;1.35;;;;;;;;;;4205440;28;20063;-58
2023/05/09 08:04:09;;;;;;;1.38;1.38;;;;;;;;;;4205383;28;20397;-58
2023/05/09 08:06:30;;;;;;;1.48;1.20;;;;;;;;;;4205332;28;20052;-57
2023/05/09 08:08:50;;;;;;;1.27;1.27;;;;;;;;;;4204513;28;20412;-58
2023/05/09 08:11:10;;;;;;;1.35;1.35;;;;;;;;;;4205368;28;20051;-57
2023/05/09 08:13:30;;;;;;;1.65;1.38;;;;;;;;;;4205295;28;20104;-58
2023/05/09 08:15:50;;;;;;;1.40;1.40;;;;;;;;;;4205230;28;20055;-58
2023/05/09 08:18:11;;;;;;;1.42;1.42;;;;;;;;;;4202572;28;20048;-58
2023/05/09 08:20:33;;;;;;;1.70;1.40;;;;;;;;;;4205219;28;20048;-58
2023/05/09 08:22:53;;;;;;;1.63;1.63;;;;;;;;;;4205103;28;20047;-58
2023/05/09 08:25:15;;;;;;;1.50;1.40;;;;;;;;;;4205022;28;20081;-59
2023/05/09 08:27:36;;;;;;;;;;;;;;;;;;4205652;28;20079;-58
2023/05/09 08:29:56;;;;;;;1.60;1.60;;;;;;;;;;4205029;28;19923;-58
2023/05/09 08:32:16;;;;;;;1.90;1.30;;;;;;;;;;4205217;28;20050;-58
2023/05/09 08:34:36;;;;;;;8.23;1.40;;;;;;;;;;4204999;28;20048;-58
2023/05/09 08:36:56;;;;;;;1.33;1.33;;;;;;;;;;4204974;28;20232;-58
2023/05/09 08:39:17;;;;;;;3.15;1.63;;;;;;;;;;4203964;28;20048;-58
2023/05/09 08:41:38;;;;;;;1.33;1.23;;;;;;;;;;4205084;28;20052;-58
2023/05/09 08:43:59;;;;;;;1.30;1.30;;;;;;;;;;4204385;28;20051;-58
2023/05/09 08:46:24;;;;;;;3.13;1.23;;;;;;;;;;4203781;28;20421;-58
2023/05/09 08:48:44;;;;;;;2.42;1.30;;;;;;;;;;4204466;28;20043;-58
2023/05/09 08:51:05;;;;;;;3.13;1.92;;;;;;;;;;4204323;28;20055;-58
2023/05/09 08:53:25;;;;;;;1.42;1.10;;;;;;;;;;4204343;28;20139;-58
2023/05/09 08:55:45;;;;;;;1.23;1.02;;;;;;;;;;4204285;28;20051;-58
2023/05/09 08:58:06;;;;;;;1.00;1.00;;;;;;;;;;4204584;28;20100;-59
2023/05/09 09:00:27;;;;;;;1.00;1.00;;;;;;;;;;4201093;28;20404;-59
2023/05/09 09:02:47;;;;;;;1.17;1.13;;;;;;;;;;4207053;28;20147;-59
2023/05/09 09:05:08;;;;;;;1.50;1.00;;;;;;;;;;4207672;28;20291;-59
2023/05/09 09:07:49;;;;;;;2.47;1.05;;;;;;;;;;4207682;28;20047;-58
2023/05/09 09:10:09;;;;;;;1.15;1.15;;;;;;;;;;4207584;28;20062;-59
2023/05/09 09:12:31;;;;;;;1.27;1.10;;;;;;;;;;4207472;28;20047;-58
2023/05/09 09:14:54;;;;;;;2.20;0.90;;;;;;;;;;4206657;28;20052;-59
2023/05/09 09:17:17;;;;;;;1.35;0.90;;;;;;;;;;4206099;28;20271;-58
2023/05/09 09:19:40;;;;;;;0.90;0.90;;;;;;;;;;4206829;28;20051;-59
2023/05/09 09:22:03;;;;;;;0.93;0.93;;;;;;;;;;4207500;28;20047;-59
2023/05/09 09:24:24;;;;;;;1.17;1.08;;;;;;;;;;4207344;28;20438;-59
2023/05/09 09:26:48;;;;;;;1.00;1.00;;;;;;;;;;4207319;28;20051;-59
2023/05/09 09:29:09;;;;;;;1.15;0.90;;;;;;;;;;4205705;28;20042;-59
2023/05/09 09:31:31;;;;;;;1.60;1.00;;;;;;;;;;4207123;28;20291;-58
2023/05/09 09:33:51;;;;;;;1.00;1.00;;;;;;;;;;4206026;28;20076;-59
2023/05/09 09:36:12;;;;;;;1.50;1.00;;;;;;;;;;4206471;28;20077;-59
2023/05/09 09:38:39;;;;;;;1.35;0.80;;;;;;;;;;4207330;28;20117;-59
2023/05/09 09:40:59;;;;;;;0.80;0.80;;;;;;;;;;4207247;28;20047;-59
2023/05/09 09:43:19;;;;;;;0.80;0.80;;;;;;;;;;4207135;28;20051;-59
2023/05/09 09:45:41;;;;;;;0.80;0.80;;;;;;;;;;4206582;28;20054;-59
2023/05/09 09:48:05;;;;;;;0.80;0.80;;;;;;;;;;4207150;28;20063;-59
2023/05/09 09:50:25;;;;;;;0.80;0.80;;;;;;;;;;4190492;28;20059;-59
2023/05/09 09:52:50;;;;;;;0.90;0.90;;;;;;;;;;4207291;28;20112;-59
2023/05/09 09:55:12;;;;;;;0.80;0.80;;;;;;;;;;4206071;28;20060;-59
2023/05/09 09:57:40;;;;;;;0.80;0.80;;;;;;;;;;4210800;28;20369;-59
2023/05/09 10:00:00;;;;;;;0.80;0.80;;;;;;;;;;4206703;28;20050;-59
2023/05/09 10:02:23;;;;;;;0.80;0.80;;;;;;;;;;4206377;28;20326;-60
2023/05/09 10:04:43;;;;;;;0.80;0.80;;;;;;;;;;4206643;28;20101;-59
2023/05/09 10:07:06;;;;;;;0.82;0.80;;;;;;;;;;4206913;28;20390;-59
2023/05/09 10:09:26;;;;;;;0.80;0.80;;;;;;;;;;4206523;28;20100;-58
2023/05/09 10:11:48;;;;;;;0.70;0.70;;;;;;;;;;4206558;28;20063;-59
2023/05/09 10:14:08;;;;;;;0.80;0.80;;;;;;;;;;4206264;28;20240;-59
2023/05/09 10:16:29;;;;;;;0.80;0.80;;;;;;;;;;4206671;28;20048;-59
2023/05/09 10:19:04;;;;;;;0.75;0.75;;;;;;;;;;4206675;28;20059;-59
2023/05/09 10:21:24;;;;;;;0.80;0.80;;;;;;;;;;4206697;28;20113;-59
2023/05/09 10:23:46;;;;;;;0.80;0.80;;;;;;;;;;4206727;28;20207;-59
2023/05/09 10:26:09;;;;;;;0.70;0.70;;;;;;;;;;4204624;28;20067;-59
2023/05/09 10:28:32;;;;;;;0.75;0.70;;;;;;;;;;4206734;28;20055;-59
2023/05/09 10:30:52;;;;;;;0.70;0.70;;;;;;;;;;4189864;28;20074;-59
2023/05/09 10:33:15;;;;;;;2.67;0.95;;;;;;;;;;4206632;28;20054;-59
2023/05/09 10:36:02;;;;;;;0.70;0.70;;;;;;;;;;4205417;28;20401;-59
2023/05/09 10:38:23;;;;;;;1.10;0.70;;;;;;;;;;4205236;28;20323;-59
2023/05/09 10:40:47;;;;;;;0.70;0.70;;;;;;;;;;4206528;28;20048;-58
2023/05/09 10:43:07;;;;;;;0.80;0.80;;;;;;;;;;4205578;28;20066;-59
2023/05/09 10:45:27;;;;;;;0.70;0.70;;;;;;;;;;4205741;28;20093;-58
2023/05/09 10:47:48;;;;;;;0.70;0.70;;;;;;;;;;4205277;28;20270;-59
2023/05/09 10:50:09;;;;;;;0.80;0.80;;;;;;;;;;4206246;28;20047;-59
2023/05/09 10:52:33;;;;;;;0.70;0.70;;;;;;;;;;4206196;28;20043;-59
2023/05/09 10:55:04;;;;;;;0.70;0.70;;;;;;;;;;4205704;28;20046;-59
2023/05/09 10:57:24;;;;;;;0.60;0.60;;;;;;;;;;4205330;28;20354;-59
2023/05/09 10:59:45;;;;;;;0.60;0.60;;;;;;;;;;4204658;28;20170;-59
2023/05/09 11:02:06;;;;;;;0.70;0.70;;;;;;;;;;4206160;28;20067;-59
2023/05/09 11:04:26;;;;;;;0.70;0.70;;;;;;;;;;4205728;28;20118;-59
2023/05/09 11:06:49;;;;;;;2.05;0.70;;;;;;;;;;4204293;28;20091;-59
2023/05/09 11:09:27;;;;;;;0.70;0.70;;;;;;;;;;4204344;28;20063;-59
2023/05/09 11:12:05;;;;;;;0.70;0.70;;;;;;;;;;4205533;28;20087;-59
2023/05/09 11:14:29;;;;;;;1.15;0.70;;;;;;;;;;4205816;28;20236;-59
2023/05/09 11:16:57;;;;;;;0.82;0.70;;;;;;;;;;4205350;28;20126;-59
2023/05/09 11:19:32;;;;;;;0.70;0.70;;;;;;;;;;4205500;28;20110;-59
2023/05/09 11:22:01;;;;;;;0.70;0.70;;;;;;;;;;4205989;28;20089;-59
2023/05/09 11:24:22;;;;;;;0.70;0.70;;;;;;;;;;4205600;28;20050;-59
2023/05/09 11:26:46;;;;;;;0.70;0.70;;;;;;;;;;4204904;28;20056;-59
2023/05/09 11:29:06;;;;;;;0.60;0.60;;;;;;;;;;4205345;28;20124;-59
2023/05/09 11:31:26;;;;;;;1.48;0.63;;;;;;;;;;4205939;28;20063;-59
2023/05/09 11:33:53;;;;;;;0.60;0.60;;;;;;;;;;4205741;28;20048;-59
2023/05/09 11:36:18;;;;;;;0.60;0.60;;;;;;;;;;4205744;28;20039;-59
2023/05/09 11:38:42;;;;;;;0.70;0.70;;;;;;;;;;4205236;28;20108;-59
2023/05/09 11:41:02;;;;;;;0.70;0.70;;;;;;;;;;4204348;28;20272;-59
2023/05/09 11:43:22;;;;;;;0.70;0.70;;;;;;;;;;4205683;28;20098;-59
2023/05/09 11:45:43;;;;;;;2.78;0.60;;;;;;;;;;4205569;28;20163;-59
2023/05/09 11:48:08;;;;;;;0.70;0.70;;;;;;;;;;4205771;28;20370;-59
2023/05/09 11:50:28;;;;;;;1.25;0.60;;;;;;;;;;4205534;28;20091;-59
2023/05/09 11:52:49;;;;;;;0.70;0.70;;;;;;;;;;4204132;28;20235;-59
2023/05/09 11:55:10;;;;;;;0.70;0.70;;;;;;;;;;4205529;28;20087;-59
2023/05/09 11:57:32;;;;;;;1.55;0.60;;;;;;;;;;4205408;28;20456;-59
2023/05/09 11:59:52;;;;;;;0.80;0.80;;;;;;;;;;4204393;28;20111;-59
2023/05/09 12:02:13;;;;;;;0.70;0.70;;;;;;;;;;4203283;28;20051;-59
2023/05/09 12:04:34;;;;;;;0.70;0.70;;;;;;;;;;4203021;28;20100;-59
2023/05/09 12:06:54;;;;;;;0.70;0.70;;;;;;;;;;4205291;28;20240;-59
2023/05/09 12:09:15;;;;;;;1.20;1.10;;;;;;;;;;4205295;28;20398;-58
2023/05/09 12:11:36;;;;;;;1.50;0.70;;;;;;;;;;4205510;28;20086;-58
2023/05/09 12:13:56;;;;;;;0.70;0.70;;;;;;;;;;4204912;28;20071;-59
2023/05/09 12:16:17;;;;;;;0.70;0.63;;;;;;;;;;4204909;28;20109;-59
2023/05/09 12:18:38;;;;;;;0.70;0.70;;;;;;;;;;4204763;28;20051;-59
2023/05/09 12:20:58;;;;;;;1.20;0.70;;;;;;;;;;4205313;28;20112;-59
2023/05/09 12:23:19;;;;;;;0.70;0.70;;;;;;;;;;4204869;28;20043;-59
2023/05/09 12:25:52;;;;;;;0.65;0.65;;;;;;;;;;4204524;28;20106;-58
2023/05/09 12:28:13;;;;;;;0.70;0.70;;;;;;;;;;4204486;28;20123;-59
2023/05/09 12:30:33;;;;;;;0.80;0.80;;;;;;;;;;4204352;28;20098;-59
2023/05/09 12:32:55;;;;;;;0.80;0.80;;;;;;;;;;4204468;28;20074;-59
2023/05/09 12:35:15;;;;;;;0.80;0.80;;;;;;;;;;4204746;28;20120;-59
2023/05/09 12:37:35;;;;;;;0.80;0.80;;;;;;;;;;4204902;28;20079;-59
2023/05/09 12:40:10;;;;;;;1.42;0.80;;;;;;;;;;4204925;28;20051;-58
2023/05/09 12:42:31;;;;;;;1.05;0.85;;;;;;;;;;4204690;28;20083;-59
2023/05/09 12:44:52;;;;;;;0.80;0.80;;;;;;;;;;4203937;28;20056;-59
2023/05/09 12:47:12;;;;;;;1.55;0.98;;;;;;;;;;4202771;28;20067;-59
2023/05/09 12:49:32;;;;;;;1.30;1.23;;;;;;;;;;4204231;28;20051;-59
2023/05/09 12:51:53;;;;;;;0.80;0.80;;;;;;;;;;4204717;28;20062;-59
2023/05/09 12:54:13;;;;;;;0.80;0.80;;;;;;;;;;4203331;28;20098;-58
2023/05/09 12:56:34;;;;;;;1.20;0.90;;;;;;;;;;4204751;28;20043;-58
2023/05/09 12:58:55;;;;;;;0.98;0.90;;;;;;;;;;4204320;28;20130;-59
2023/05/09 13:01:15;;;;;;;0.90;0.90;;;;;;;;;;4204746;28;20139;-59
2023/05/09 13:03:38;;;;;;;1.00;1.00;;;;;;;;;;4202859;28;20055;-58
2023/05/09 13:05:59;;;;;;;0.90;0.90;;;;;;;;;;4204922;28;20143;-59
2023/05/09 13:08:20;;;;;;;1.15;1.00;;;;;;;;;;4203676;28;20082;-59
2023/05/09 13:10:40;;;;;;;0.95;0.95;;;;;;;;;;4204654;28;20052;-60
2023/05/09 13:13:03;;;;;;;1.00;1.00;;;;;;;;;;4202924;28;20091;-59
2023/05/09 13:15:25;;;;;;;1.30;1.25;;;;;;;;;;4204566;28;20575;-58
2023/05/09 13:17:49;;;;;;;0.97;0.97;;;;;;;;;;4203560;28;20121;-58
2023/05/09 13:20:10;;;;;;;1.67;1.10;;;;;;;;;;4203081;28;20086;-59
2023/05/09 13:22:31;;;;;;;1.10;1.10;;;;;;;;;;4203714;28;20074;-59
2023/05/09 13:24:51;;;;;;;1.40;1.00;;;;;;;;;;4204516;28;20236;-59
2023/05/09 13:27:12;;;;;;;1.00;1.00;;;;;;;;;;4203616;28;20047;-59
2023/05/09 13:29:32;;;;;;;1.00;1.00;;;;;;;;;;4204438;28;20070;-58
2023/05/09 13:31:52;;;;;;;1.20;1.20;;;;;;;;;;4203724;28;20127;-58
2023/05/09 13:34:12;;;;;;;1.10;1.10;;;;;;;;;;4204150;28;20393;-58
2023/05/09 13:36:32;;;;;;;1.10;1.10;;;;;;;;;;4203035;28;20051;-59
2023/05/09 13:38:52;;;;;;;1.35;1.35;;;;;;;;;;4203927;28;20078;-59
2023/05/09 13:41:18;;;;;;;1.38;1.38;;;;;;;;;;4204233;28;20269;-59
2023/05/09 13:43:41;;;;;;;1.17;1.17;;;;;;;;;;4204161;28;20101;-59
2023/05/09 13:46:01;;;;;;;1.20;1.08;;;;;;;;;;4203322;28;20090;-58
2023/05/09 13:48:22;;;;;;;1.20;1.20;;;;;;;;;;4204765;28;20109;-58
2023/05/09 13:50:42;;;;;;;1.25;1.17;;;;;;;;;;4206197;28;20118;-59
2023/05/09 13:53:02;;;;;;;2.67;1.85;;;;;;;;;;4206909;28;20055;-59
2023/05/09 13:55:24;;;;;;;1.60;1.35;;;;;;;;;;4206463;28;20307;-58
2023/05/09 13:57:45;;;;;;;1.42;1.42;;;;;;;;;;4191413;28;20047;-59
2023/05/09 14:00:05;;;;;;;1.65;1.50;;;;;;;;;;4207087;28;20066;-58
2023/05/09 14:02:26;;;;;;;1.58;1.58;;;;;;;;;;4206919;28;20047;-58
2023/05/09 14:04:46;;;;;;;1.40;1.40;;;;;;;;;;4206591;28;20048;-58
2023/05/09 14:07:09;;;;;;;1.48;1.45;;;;;;;;;;4206709;28;20052;-59
2023/05/09 14:09:30;;;;;;;1.63;1.63;;;;;;;;;;4206972;28;20075;-58